Time;durP1;ratioP1;P1;durP2;ratioP2;P2;SDS_P1;SDS_P2;PMS_P1;PMS_P2;Temp;Humidity;BMP_temperature;BMP_pressure;BME280_temperature;BME280_humidity;BME280_pressure;Samples;Min_cycle;Max_cycle;Signal;HPM_P1;HPM_P2
2023/10/11 00:01:04;;;;;;;2.60;2.50;;;21.10;78.00;;;;;;5073634;28;43414;-65
2023/10/11 00:03:35;;;;;;;2.97;2.87;;;21.10;78.00;;;;;;5077954;28;43522;-69
2023/10/11 00:06:05;;;;;;;2.13;2.13;;;21.00;78.00;;;;;;5087747;28;43453;-69
2023/10/11 00:08:40;;;;;;;2.83;2.73;;;21.00;78.10;;;;;;5087637;28;45222;-69
2023/10/11 00:11:10;;;;;;;2.67;2.63;;;20.90;78.30;;;;;;5082856;28;43446;-69
2023/10/11 00:13:40;;;;;;;2.90;2.80;;;20.90;78.40;;;;;;5083192;28;43380;-69
2023/10/11 00:16:09;;;;;;;2.50;2.40;;;20.90;78.30;;;;;;5087411;28;43423;-69
2023/10/11 00:18:38;;;;;;;2.30;2.30;;;20.90;78.30;;;;;;5089085;28;43687;-69
2023/10/11 00:21:10;;;;;;;2.80;2.70;;;20.90;78.50;;;;;;5088896;28;43418;-69
2023/10/11 00:23:41;;;;;;;2.67;2.60;;;20.90;78.80;;;;;;5085456;28;43355;-69
2023/10/11 00:26:14;;;;;;;2.50;2.40;;;20.90;78.60;;;;;;5085272;28;43415;-70
2023/10/11 00:28:51;;;;;;;2.50;2.40;;;21.00;78.20;;;;;;5088776;28;43635;-69
2023/10/11 00:31:20;;;;;;;2.50;2.47;;;21.20;77.70;;;;;;5087400;28;44642;-69
2023/10/11 00:33:48;;;;;;;2.70;2.60;;;21.30;77.20;;;;;;5088661;28;43446;-69
2023/10/11 00:36:23;;;;;;;2.67;2.67;;;21.30;76.90;;;;;;5087490;28;43456;-70
2023/10/11 00:38:51;;;;;;;2.57;2.57;;;21.30;76.90;;;;;;5087696;28;46223;-69
2023/10/11 00:41:21;;;;;;;2.70;2.60;;;21.20;77.10;;;;;;5087714;28;44710;-69
2023/10/11 00:43:52;;;;;;;2.33;2.30;;;21.20;77.50;;;;;;5087010;28;43479;-70
2023/10/11 00:46:23;;;;;;;2.57;2.57;;;21.10;77.70;;;;;;5087277;28;43427;-70
2023/10/11 00:48:54;;;;;;;2.53;2.53;;;21.10;78.50;;;;;;5087667;28;45398;-70
2023/10/11 00:51:24;;;;;;;2.80;2.70;;;21.10;77.80;;;;;;5086259;28;45119;-69
2023/10/11 00:53:54;;;;;;;2.80;2.70;;;21.00;77.90;;;;;;5087416;28;43371;-69
2023/10/11 00:56:26;;;;;;;2.50;2.40;;;21.00;78.10;;;;;;5089393;28;43500;-69
2023/10/11 00:58:55;;;;;;;2.80;2.70;;;20.90;78.30;;;;;;5086318;28;45879;-69
2023/10/11 01:01:24;;;;;;;2.80;2.70;;;21.00;78.20;;;;;;5086939;28;44729;-70
2023/10/11 01:03:53;;;;;;;2.63;2.63;;;21.10;77.70;;;;;;5087617;28;43327;-69
2023/10/11 01:06:25;;;;;;;2.57;2.57;;;21.20;77.50;;;;;;5086967;28;43582;-69
2023/10/11 01:08:53;;;;;;;3.00;2.90;;;21.20;77.40;;;;;;5087253;28;45284;-69
2023/10/11 01:11:22;;;;;;;2.73;2.60;;;21.20;77.70;;;;;;5088121;28;43438;-70
2023/10/11 01:13:54;;;;;;;2.80;2.70;;;21.10;77.60;;;;;;5079612;28;43462;-66
2023/10/11 01:16:26;;;;;;;2.80;2.70;;;21.10;77.50;;;;;;5071076;28;43474;-66
2023/10/11 01:18:54;;;;;;;2.40;2.40;;;21.10;77.60;;;;;;5071957;28;44022;-66
2023/10/11 01:21:23;;;;;;;2.70;2.70;;;21.10;77.70;;;;;;5063728;28;44805;-66
2023/10/11 01:23:51;;;;;;;2.97;2.87;;;21.00;77.90;;;;;;5070934;28;43477;-66
2023/10/11 01:26:20;;;;;;;2.90;2.80;;;20.90;78.10;;;;;;5069869;28;43390;-65
2023/10/11 01:28:51;;;;;;;2.87;2.77;;;20.90;78.00;;;;;;5070565;28;46179;-66
2023/10/11 01:31:19;;;;;;;2.90;2.80;;;20.90;78.10;;;;;;5070702;28;44467;-66
2023/10/11 01:33:49;;;;;;;3.17;2.97;;;20.90;78.20;;;;;;5076836;28;44063;-69
2023/10/11 01:36:21;;;;;;;2.70;2.60;;;20.90;78.50;;;;;;5085923;28;44023;-70
2023/10/11 01:38:52;;;;;;;2.83;2.73;;;20.90;78.50;;;;;;5087421;28;43607;-69
2023/10/11 01:41:21;;;;;;;2.63;2.60;;;20.90;79.00;;;;;;5086463;28;44803;-70
2023/10/11 01:43:50;;;;;;;2.77;2.77;;;20.90;78.30;;;;;;5085943;28;43419;-70
2023/10/11 01:46:24;;;;;;;2.77;2.67;;;20.90;78.40;;;;;;5087446;28;43482;-69
2023/10/11 01:48:53;;;;;;;2.73;2.70;;;20.80;78.50;;;;;;5085038;28;45702;-70
2023/10/11 01:51:26;;;;;;;2.60;2.50;;;20.90;78.60;;;;;;5085867;28;44889;-69
2023/10/11 01:53:55;;;;;;;2.73;2.67;;;21.00;78.30;;;;;;5078675;28;43461;-69
2023/10/11 01:56:24;;;;;;;2.63;2.57;;;21.10;77.70;;;;;;5086749;28;43494;-69
2023/10/11 01:58:52;;;;;;;2.60;2.60;;;21.30;77.10;;;;;;5086885;28;45950;-69
2023/10/11 02:01:22;;;;;;;2.80;2.70;;;21.30;76.70;;;;;;5085950;28;43660;-69
2023/10/11 02:03:53;;;;;;;2.30;2.30;;;21.30;76.60;;;;;;5086999;28;43383;-69
2023/10/11 02:06:22;;;;;;;2.37;2.37;;;21.30;76.80;;;;;;5087579;28;43471;-69
2023/10/11 02:08:51;;;;;;;2.50;2.50;;;21.20;77.10;;;;;;5087080;28;43595;-70
2023/10/11 02:11:24;;;;;;;2.63;2.63;;;21.10;77.40;;;;;;5085645;28;45013;-70
2023/10/11 02:13:52;;;;;;;3.00;2.90;;;21.10;77.60;;;;;;5099027;28;43462;-70
2023/10/11 02:16:21;;;;;;;2.90;2.70;;;21.10;77.60;;;;;;5085154;28;43566;-69
2023/10/11 02:18:52;;;;;;;2.70;2.60;;;21.00;77.60;;;;;;5087092;28;44158;-70
2023/10/11 02:21:20;;;;;;;2.83;2.73;;;21.00;77.80;;;;;;5084857;28;43513;-70
2023/10/11 02:23:48;;;;;;;2.80;2.70;;;21.00;78.20;;;;;;5080236;28;43498;-66
2023/10/11 02:26:17;;;;;;;2.80;2.70;;;21.00;78.20;;;;;;5067330;28;43408;-66
2023/10/11 02:28:48;;;;;;;2.63;2.53;;;21.10;77.90;;;;;;5069373;28;45768;-66
2023/10/11 02:31:20;;;;;;;2.97;2.87;;;21.20;77.40;;;;;;5071846;28;43767;-66
2023/10/11 02:33:56;;;;;;;2.60;2.50;;;21.20;77.20;;;;;;5073259;28;43423;-66
2023/10/11 02:36:26;;;;;;;2.57;2.47;;;21.20;77.30;;;;;;5073632;28;43406;-65
2023/10/11 02:38:54;;;;;;;2.60;2.50;;;21.10;77.50;;;;;;5074753;28;43874;-66
2023/10/11 02:41:24;;;;;;;2.60;2.60;;;21.10;77.50;;;;;;5073037;28;44735;-65
2023/10/11 02:43:57;;;;;;;2.30;2.30;;;21.10;77.60;;;;;;5079700;28;43424;-69
2023/10/11 02:46:27;;;;;;;2.70;2.60;;;21.00;77.50;;;;;;5086901;28;43549;-69
2023/10/11 02:49:05;;;;;;;2.20;2.20;;;21.00;77.80;;;;;;5088975;28;45347;-69
2023/10/11 02:51:33;;;;;;;2.60;2.50;;;20.90;77.90;;;;;;5089896;28;43489;-69
2023/10/11 02:54:04;;;;;;;2.77;2.67;;;20.90;78.20;;;;;;5088890;28;43386;-69
2023/10/11 02:56:46;;;;;;;2.80;2.70;;;20.80;78.20;;;;;;5088893;28;43378;-69
2023/10/11 02:59:19;;;;;;;2.40;2.40;;;20.80;78.40;;;;;;5088403;28;46070;-69
2023/10/11 03:01:59;;;;;;;2.47;2.43;;;20.80;78.50;;;;;;5088807;28;43426;-69
2023/10/11 03:04:34;;;;;;;2.67;2.60;;;20.80;78.70;;;;;;5088761;28;43356;-69
2023/10/11 03:07:03;;;;;;;2.50;2.50;;;20.70;78.80;;;;;;5088981;28;43621;-70
2023/10/11 03:09:33;;;;;;;2.70;2.60;;;20.80;79.10;;;;;;5082749;28;45826;-69
2023/10/11 03:12:09;;;;;;;2.60;2.50;;;20.90;78.80;;;;;;5082795;28;45335;-70
2023/10/11 03:14:41;;;;;;;2.60;2.50;;;21.00;78.00;;;;;;5087918;28;43403;-69
2023/10/11 03:17:13;;;;;;;2.73;2.63;;;21.20;77.20;;;;;;5087401;28;43765;-69
2023/10/11 03:19:43;;;;;;;2.47;2.47;;;21.50;76.50;;;;;;5085850;28;43890;-69
2023/10/11 03:22:19;;;;;;;2.40;2.40;;;21.70;75.70;;;;;;5088223;28;44954;-69
2023/10/11 03:24:53;;;;;;;2.20;2.20;;;22.00;74.80;;;;;;5088969;28;43489;-70
2023/10/11 03:27:23;;;;;;;2.50;2.40;;;22.20;74.10;;;;;;5088146;28;43560;-69
2023/10/11 03:29:53;;;;;;;2.50;2.50;;;22.30;73.50;;;;;;5087531;28;44813;-69
2023/10/11 03:32:25;;;;;;;2.30;2.30;;;22.40;73.00;;;;;;5087905;28;44370;-69
2023/10/11 03:34:55;;;;;;;2.10;2.10;;;22.50;72.70;;;;;;5070081;28;43367;-69
2023/10/11 03:37:27;;;;;;;2.67;2.57;;;22.60;72.30;;;;;;5070063;28;43438;-75
2023/10/11 03:39:57;;;;;;;2.67;2.57;;;22.60;72.30;;;;;;5063214;28;43977;-70
2023/10/11 03:42:50;;;;;;;2.90;2.80;;;22.50;72.60;;;;;;5065791;28;44237;-69
2023/10/11 03:45:27;;;;;;;2.67;2.57;;;22.30;73.00;;;;;;5066741;28;43414;-70
2023/10/11 03:47:57;;;;;;;2.77;2.67;;;22.10;73.60;;;;;;5068156;28;43754;-69
2023/10/11 03:50:33;;;;;;;3.23;2.93;;;22.10;74.00;;;;;;5069553;28;43668;-70
2023/10/11 03:53:10;;;;;;;5.20;3.57;;;22.00;74.20;;;;;;5069896;28;43507;-71
2023/10/11 03:55:45;;;;;;;7.60;5.27;;;21.80;74.60;;;;;;5064084;28;43415;-71
2023/10/11 03:58:32;;;;;;;9.60;5.30;;;21.60;75.20;;;;;;5069761;28;43529;-71
2023/10/11 04:01:05;;;;;;;12.63;5.73;;;21.60;75.50;;;;;;5069454;28;43615;-71
2023/10/11 04:03:34;;;;;;;9.70;5.50;;;21.50;75.40;;;;;;5069317;28;44011;-71
2023/10/11 04:06:13;;;;;;;12.27;6.17;;;21.50;75.50;;;;;;5069599;28;43470;-71
2023/10/11 04:08:43;;;;;;;14.70;6.97;;;21.30;75.50;;;;;;5063069;28;43474;-71
2023/10/11 04:11:18;;;;;;;15.53;7.57;;;21.30;75.60;;;;;;5063087;28;43677;-73
2023/10/11 04:13:49;;;;;;;17.77;7.10;;;21.30;75.40;;;;;;5068364;28;43358;-69
2023/10/11 04:16:18;;;;;;;16.90;6.47;;;21.40;75.10;;;;;;5069360;28;43399;-71
2023/10/11 04:18:52;;;;;;;16.30;7.10;;;21.50;74.60;;;;;;5069711;28;43967;-71
2023/10/11 04:21:53;;;;;;;17.93;7.37;;;21.50;74.30;;;;;;5068961;28;44116;-72
2023/10/11 04:24:21;;;;;;;16.93;7.50;;;21.50;74.30;;;;;;5067955;28;44434;-70
2023/10/11 04:26:58;;;;;;;16.03;7.87;;;21.40;74.70;;;;;;5067501;28;43351;-72
2023/10/11 04:29:31;;;;;;;18.30;7.63;;;21.30;75.00;;;;;;5069598;28;43374;-71
2023/10/11 04:32:14;;;;;;;12.47;7.53;;;21.20;75.30;;;;;;5068984;28;43603;-71
2023/10/11 04:34:55;;;;;;;14.10;7.40;;;21.20;75.40;;;;;;5068784;28;43455;-72
2023/10/11 04:37:28;;;;;;;15.70;7.57;;;21.20;75.80;;;;;;5068626;28;43886;-70
2023/10/11 04:40:15;;;;;;;15.67;7.37;;;21.10;76.10;;;;;;5068166;28;43798;-71
2023/10/11 04:42:43;;;;;;;18.13;8.70;;;21.10;76.20;;;;;;5068674;28;43673;-71
2023/10/11 04:45:21;;;;;;;14.60;7.40;;;21.00;76.00;;;;;;5079838;28;45178;-70
2023/10/11 04:47:52;;;;;;;15.23;7.70;;;21.00;76.20;;;;;;5068391;28;43447;-70
2023/10/11 04:50:26;;;;;;;15.60;7.57;;;21.00;76.50;;;;;;5068968;28;43979;-70
2023/10/11 04:52:56;;;;;;;16.57;8.20;;;21.00;76.70;;;;;;5068126;28;44453;-69
2023/10/11 04:55:34;;;;;;;16.57;7.73;;;20.90;76.20;;;;;;5068554;28;43423;-69
2023/10/11 04:58:07;;;;;;;13.33;7.20;;;21.00;76.10;;;;;;5068057;28;43514;-69
2023/10/11 05:00:44;;;;;;;16.60;7.63;;;21.10;75.80;;;;;;5064744;28;43405;-69
2023/10/11 05:03:17;;;;;;;15.87;7.97;;;21.20;75.40;;;;;;5063479;28;43829;-73
2023/10/11 05:05:58;;;;;;;16.80;8.00;;;21.30;75.00;;;;;;5066049;28;44506;-72
2023/10/11 05:08:51;;;;;;;16.13;7.57;;;21.30;74.90;;;;;;5068697;28;43434;-72
2023/10/11 05:11:31;;;;;;;10.73;6.90;;;21.30;75.30;;;;;;5067636;28;43420;-72
2023/10/11 05:14:07;;;;;;;9.50;6.77;;;21.20;75.70;;;;;;5068447;28;43680;-72
2023/10/11 05:16:44;;;;;;;14.13;7.20;;;21.10;75.70;;;;;;5068637;28;43389;-72
2023/10/11 05:19:20;;;;;;;13.07;6.87;;;21.10;75.80;;;;;;5068371;28;43410;-72
2023/10/11 05:21:53;;;;;;;13.93;7.30;;;21.10;76.00;;;;;;5068744;28;43395;-72
2023/10/11 05:25:12;;;;;;;13.97;6.83;;;21.00;76.20;;;;;;5062924;28;45328;-72
2023/10/11 05:27:37;;;;;;;13.93;7.40;;;21.00;76.40;;;;;;5068041;28;43502;-72
2023/10/11 05:30:11;;;;;;;13.60;7.40;;;20.90;76.40;;;;;;5063100;28;43347;-72
2023/10/11 05:32:41;;;;;;;12.37;7.33;;;21.00;76.20;;;;;;5062910;28;43446;-72
2023/10/11 05:35:43;;;;;;;10.70;6.93;;;21.10;75.80;;;;;;5067946;28;44116;-71
2023/10/11 05:52:15;;;;;;;11.47;6.53;;;21.00;76.20;;;;;;5067952;28;43350;-71
2023/10/11 05:54:45;;;;;;;13.80;7.07;;;20.90;76.20;;;;;;5083239;28;43435;-69
2023/10/11 05:57:13;;;;;;;10.20;6.67;;;20.90;76.30;;;;;;5086164;28;43859;-69
2023/10/11 05:59:43;;;;;;;12.30;6.90;;;21.00;76.70;;;;;;5081339;28;43730;-69
2023/10/11 06:02:14;;;;;;;12.27;6.60;;;21.10;75.70;;;;;;5086822;28;43991;-69
2023/10/11 06:04:42;;;;;;;10.97;6.70;;;21.10;75.40;;;;;;5087300;28;43417;-70
2023/10/11 06:07:12;;;;;;;9.97;6.67;;;21.10;75.50;;;;;;5086228;28;43609;-69
2023/10/11 06:09:45;;;;;;;9.50;6.40;;;21.10;75.70;;;;;;5090528;28;43390;-69
2023/10/11 06:12:23;;;;;;;9.57;6.87;;;21.00;75.60;;;;;;5090801;28;43335;-69
2023/10/11 06:14:52;;;;;;;10.10;6.20;;;21.00;75.60;;;;;;5073432;28;44055;-69
2023/10/11 06:17:22;;;;;;;7.33;5.90;;;21.00;75.80;;;;;;5070664;28;43615;-74
2023/10/11 06:19:54;;;;;;;10.27;6.40;;;21.00;76.10;;;;;;5068870;28;44611;-69
2023/10/11 06:22:28;;;;;;;9.43;6.00;;;20.90;76.00;;;;;;5070681;28;43486;-70
2023/10/11 06:24:58;;;;;;;10.47;6.80;;;20.90;76.00;;;;;;5069342;28;43522;-69
2023/10/11 06:30:12;;;;;;;9.23;5.87;;;20.90;76.40;;;;;;5070388;28;43435;-76
2023/10/11 06:32:42;;;;;;;8.87;6.00;;;20.90;76.50;;;;;;5070414;28;43395;-70
2023/10/11 06:35:23;;;;;;;8.30;6.27;;;20.80;76.40;;;;;;5069578;28;43427;-69
2023/10/11 06:37:52;;;;;;;9.03;6.07;;;20.90;76.40;;;;;;5070102;28;43845;-69
2023/10/11 06:40:38;;;;;;;9.60;6.30;;;21.00;76.00;;;;;;5070239;28;43700;-70
2023/10/11 06:43:06;;;;;;;7.13;5.87;;;21.10;75.70;;;;;;5088445;27;43834;-72
2023/10/11 06:45:35;;;;;;;9.53;6.00;;;21.10;75.60;;;;;;5070593;28;43422;-71
2023/10/11 06:48:07;;;;;;;8.83;6.03;;;21.10;75.60;;;;;;5069931;28;43948;-71
2023/10/11 06:50:38;;;;;;;7.87;6.13;;;21.00;75.70;;;;;;5070500;28;43940;-70
2023/10/11 06:53:08;;;;;;;8.83;6.13;;;21.00;75.60;;;;;;5070664;28;43368;-71
2023/10/11 06:55:39;;;;;;;7.20;5.57;;;21.00;75.80;;;;;;5070815;28;43496;-71
2023/10/11 06:58:15;;;;;;;7.20;5.70;;;21.00;76.00;;;;;;5068021;28;43858;-70
2023/10/11 07:00:46;;;;;;;8.03;5.77;;;20.90;76.10;;;;;;5062934;28;44582;-70
2023/10/11 07:03:26;;;;;;;9.23;5.90;;;20.90;76.10;;;;;;5068908;28;43309;-70
2023/10/11 07:05:58;;;;;;;7.23;5.80;;;20.90;76.10;;;;;;5066511;28;43452;-70
2023/10/11 07:08:32;;;;;;;6.27;5.53;;;20.90;76.30;;;;;;5069538;28;43602;-70
2023/10/11 07:11:03;;;;;;;7.17;5.53;;;20.80;76.40;;;;;;5070232;28;43423;-70
2023/10/11 07:13:49;;;;;;;6.90;5.10;;;20.80;77.30;;;;;;5070200;28;43388;-70
2023/10/11 07:16:19;;;;;;;8.00;5.47;;;20.80;76.50;;;;;;5069311;28;43485;-70
2023/10/11 07:18:47;;;;;;;6.13;5.40;;;20.90;76.20;;;;;;5062612;28;43620;-70
2023/10/11 07:21:16;;;;;;;8.23;5.40;;;21.00;75.70;;;;;;5067052;28;43995;-70
2023/10/11 07:23:56;;;;;;;5.60;5.10;;;21.20;75.30;;;;;;5077430;28;43336;-70
2023/10/11 07:29:14;;;;;;;6.00;5.37;;;21.20;75.00;;;;;;5089611;28;43902;-70
2023/10/11 07:31:48;;;;;;;8.03;5.40;;;21.10;75.30;;;;;;5089015;28;43412;-69
2023/10/11 07:34:18;;;;;;;5.80;5.20;;;21.00;75.60;;;;;;5088648;28;43348;-69
2023/10/11 07:36:48;;;;;;;5.90;5.40;;;21.00;75.80;;;;;;5089641;28;43431;-69
2023/10/11 07:39:25;;;;;;;5.83;5.33;;;20.90;75.80;;;;;;5089910;28;43855;-69
2023/10/11 07:42:02;;;;;;;6.00;5.40;;;20.90;75.90;;;;;;5082743;28;43449;-70
2023/10/11 07:44:31;;;;;;;6.23;5.23;;;20.90;76.20;;;;;;5088785;28;43451;-70
2023/10/11 07:46:59;;;;;;;6.03;5.37;;;20.90;76.40;;;;;;5088342;28;43413;-70
2023/10/11 07:49:27;;;;;;;6.00;5.13;;;20.80;76.30;;;;;;5087754;28;45610;-70
2023/10/11 07:51:58;;;;;;;6.57;5.17;;;20.80;76.20;;;;;;5084435;28;43461;-70
2023/10/11 07:54:27;;;;;;;4.67;4.27;;;20.80;76.40;;;;;;5089041;28;43401;-70
2023/10/11 07:57:00;;;;;;;5.30;4.77;;;20.80;76.50;;;;;;5089176;28;43438;-70
2023/10/11 07:59:28;;;;;;;5.73;5.23;;;20.80;76.70;;;;;;5082682;28;43956;-70
2023/10/11 08:01:57;;;;;;;5.70;5.10;;;20.80;76.70;;;;;;5088289;28;43476;-70
2023/10/11 08:04:28;;;;;;;5.10;4.70;;;20.80;76.40;;;;;;5088587;28;43372;-70
2023/10/11 08:07:04;;;;;;;5.70;5.10;;;20.90;76.10;;;;;;5087867;28;43407;-70
2023/10/11 08:09:45;;;;;;;5.37;4.87;;;20.90;75.80;;;;;;5088032;28;43700;-70
2023/10/11 08:12:16;;;;;;;5.17;4.67;;;21.00;75.80;;;;;;5088487;28;43403;-70
2023/10/11 08:14:45;;;;;;;5.33;4.83;;;20.90;75.90;;;;;;5086114;28;43449;-70
2023/10/11 08:17:16;;;;;;;5.03;4.57;;;20.90;75.90;;;;;;5089354;28;43422;-70
2023/10/11 08:19:44;;;;;;;4.97;4.57;;;20.90;75.90;;;;;;5088248;28;43906;-69
2023/10/11 08:22:14;;;;;;;5.53;4.67;;;20.90;75.90;;;;;;5088879;28;43337;-69
2023/10/11 08:24:48;;;;;;;5.23;4.80;;;20.90;76.20;;;;;;5088687;28;43477;-69
2023/10/11 08:27:23;;;;;;;4.83;4.47;;;20.90;76.30;;;;;;5089127;28;43398;-71
2023/10/11 08:29:54;;;;;;;4.97;4.53;;;20.80;76.40;;;;;;5088207;28;43848;-69
2023/10/11 08:32:31;;;;;;;4.97;4.57;;;20.90;76.40;;;;;;5088136;28;43386;-70
2023/10/11 08:34:59;;;;;;;4.60;4.30;;;20.80;76.40;;;;;;5070270;28;43488;-69
2023/10/11 08:37:33;;;;;;;5.53;4.70;;;20.80;76.50;;;;;;5069464;28;43431;-70
2023/10/11 08:40:19;;;;;;;5.50;4.50;;;20.80;76.70;;;;;;5068617;28;43769;-70
2023/10/11 08:42:49;;;;;;;5.13;4.67;;;20.80;76.60;;;;;;5067918;28;43854;-70
2023/10/11 08:45:28;;;;;;;5.10;4.60;;;20.90;76.40;;;;;;5067543;28;43423;-70
2023/10/11 08:48:00;;;;;;;4.53;4.17;;;21.00;75.90;;;;;;5067350;28;43377;-69
2023/10/11 08:50:35;;;;;;;4.80;4.40;;;21.10;75.40;;;;;;5066301;28;43611;-69
2023/10/11 08:53:08;;;;;;;4.97;4.50;;;21.20;75.10;;;;;;5068417;28;43865;-70
2023/10/11 08:55:39;;;;;;;4.97;4.43;;;21.20;75.10;;;;;;5065262;28;43474;-71
2023/10/11 08:58:12;;;;;;;4.57;4.27;;;21.10;75.40;;;;;;5067613;28;43412;-70
2023/10/11 09:00:47;;;;;;;5.13;4.60;;;21.00;75.60;;;;;;5064080;28;43857;-71
2023/10/11 09:03:17;;;;;;;5.23;4.73;;;21.00;75.80;;;;;;5062733;28;43349;-71
2023/10/11 09:05:47;;;;;;;4.90;4.50;;;20.90;75.80;;;;;;5068697;28;43525;-71
2023/10/11 09:08:26;;;;;;;4.37;4.17;;;20.90;76.80;;;;;;5068735;28;43425;-70
2023/10/11 09:10:54;;;;;;;4.20;3.90;;;20.90;76.30;;;;;;5066678;28;46323;-70
2023/10/11 09:13:27;;;;;;;4.57;4.27;;;20.80;76.40;;;;;;5068325;28;43372;-70
2023/10/11 09:15:56;;;;;;;5.20;4.73;;;20.80;76.40;;;;;;5068440;28;43424;-70
2023/10/11 09:18:31;;;;;;;3.93;3.70;;;20.80;76.40;;;;;;5068381;28;43533;-70
2023/10/11 09:21:17;;;;;;;4.13;3.80;;;20.80;76.70;;;;;;5067754;28;43696;-70
2023/10/11 09:23:54;;;;;;;4.57;4.27;;;20.80;76.80;;;;;;5069259;28;43890;-66
2023/10/11 09:26:32;;;;;;;4.67;4.37;;;20.80;76.80;;;;;;5070675;28;43975;-66
2023/10/11 09:29:16;;;;;;;4.03;3.83;;;20.80;76.70;;;;;;5070613;28;43920;-66
2023/10/11 09:31:57;;;;;;;4.60;4.30;;;20.80;76.20;;;;;;5072273;28;43524;-67
2023/10/11 09:34:29;;;;;;;4.60;4.30;;;21.00;75.90;;;;;;5066127;28;43399;-67
2023/10/11 09:36:58;;;;;;;4.47;4.13;;;21.10;75.40;;;;;;5070898;28;43446;-66
2023/10/11 09:39:29;;;;;;;4.67;4.27;;;21.10;75.20;;;;;;5071155;28;43401;-65
2023/10/11 09:42:02;;;;;;;4.70;4.30;;;21.10;75.70;;;;;;5071543;28;43706;-66
2023/10/11 09:44:37;;;;;;;4.17;3.97;;;21.00;76.00;;;;;;5070651;28;45134;-66
2023/10/11 09:47:05;;;;;;;4.07;3.77;;;21.00;76.20;;;;;;5069439;28;43807;-66
2023/10/11 09:49:41;;;;;;;4.73;4.20;;;20.90;75.90;;;;;;5072610;28;43339;-66
2023/10/11 09:52:10;;;;;;;3.63;3.43;;;20.90;76.20;;;;;;5070205;28;43647;-66
2023/10/11 09:54:39;;;;;;;3.93;3.73;;;20.90;76.60;;;;;;5071729;28;43513;-66
2023/10/11 09:57:13;;;;;;;4.87;4.00;;;20.90;76.80;;;;;;5070892;28;43429;-66
2023/10/11 09:59:47;;;;;;;4.00;3.70;;;20.80;76.70;;;;;;5071556;28;43996;-66
2023/10/11 10:02:19;;;;;;;4.40;4.00;;;20.80;76.40;;;;;;5071957;28;43894;-66
2023/10/11 10:04:57;;;;;;;3.83;3.63;;;20.90;76.20;;;;;;5068643;28;43327;-67
2023/10/11 10:07:32;;;;;;;4.10;3.80;;;20.90;75.80;;;;;;5072008;28;43478;-66
2023/10/11 10:10:02;;;;;;;4.30;4.00;;;21.00;75.90;;;;;;5072088;28;43478;-67
2023/10/11 10:12:33;;;;;;;3.77;3.57;;;21.00;76.30;;;;;;5071596;28;43766;-66
2023/10/11 10:15:12;;;;;;;4.17;3.77;;;20.90;75.90;;;;;;5071893;28;43473;-66
2023/10/11 10:17:42;;;;;;;3.93;3.63;;;21.00;75.90;;;;;;5071102;28;43396;-67
2023/10/11 10:20:41;;;;;;;4.20;3.97;;;21.00;76.30;;;;;;5071996;28;43598;-66
2023/10/11 10:23:29;;;;;;;3.37;3.17;;;20.90;76.60;;;;;;5047301;28;44094;-66
2023/10/11 10:26:41;;;;;;;3.90;3.70;;;20.90;76.70;;;;;;5071587;28;43521;-66
2023/10/11 10:29:11;;;;;;;5.70;3.80;;;20.90;76.40;;;;;;5069796;28;43375;-67
2023/10/11 10:32:06;;;;;;;3.70;3.50;;;20.80;76.80;;;;;;5071397;28;43839;-66
2023/10/11 10:34:34;;;;;;;4.23;4.03;;;20.90;77.00;;;;;;5063616;28;45022;-72
2023/10/11 10:37:07;;;;;;;4.00;3.77;;;20.80;77.00;;;;;;5067380;28;43462;-72
2023/10/11 10:39:46;;;;;;;3.80;3.60;;;20.80;76.70;;;;;;5067339;28;43675;-72
2023/10/11 10:42:16;;;;;;;3.50;3.30;;;20.90;76.60;;;;;;5067145;28;43381;-71
2023/10/11 10:44:53;;;;;;;3.73;3.53;;;20.90;76.00;;;;;;5067237;28;44081;-72
2023/10/11 10:47:25;;;;;;;3.67;3.43;;;21.00;75.80;;;;;;5062772;28;43367;-72
2023/10/11 10:49:54;;;;;;;3.30;3.20;;;21.00;76.20;;;;;;5067552;28;43433;-72
2023/10/11 10:52:25;;;;;;;3.87;3.67;;;21.00;76.80;;;;;;5068179;28;43435;-72
2023/10/11 10:55:01;;;;;;;3.73;3.53;;;21.00;75.80;;;;;;5066294;28;43765;-72
2023/10/11 10:57:32;;;;;;;3.83;3.63;;;21.00;76.00;;;;;;5065163;28;43718;-72
2023/10/11 11:00:05;;;;;;;3.80;3.60;;;21.00;76.40;;;;;;5069186;28;43486;-72
2023/10/11 11:02:34;;;;;;;3.77;3.57;;;21.00;76.60;;;;;;5070801;28;44021;-72
2023/10/11 11:05:09;;;;;;;4.07;3.77;;;20.90;76.50;;;;;;5070235;28;43939;-72
2023/10/11 11:07:36;;;;;;;3.63;3.43;;;20.90;76.20;;;;;;5069563;28;43434;-72
2023/10/11 11:10:06;;;;;;;3.57;3.40;;;20.90;76.60;;;;;;5070564;28;43351;-72
2023/10/11 11:12:33;;;;;;;4.30;4.00;;;20.90;76.90;;;;;;5069282;28;43554;-71
2023/10/11 11:15:08;;;;;;;3.77;3.57;;;20.90;76.90;;;;;;5068162;28;45382;-71
2023/10/11 11:17:47;;;;;;;4.30;4.00;;;20.90;76.90;;;;;;5069924;28;43439;-72
2023/10/11 11:20:27;;;;;;;3.47;3.20;;;20.90;76.40;;;;;;5067774;28;43668;-71
2023/10/11 11:22:54;;;;;;;3.90;3.60;;;20.90;76.10;;;;;;5070054;28;43503;-72
2023/10/11 11:25:29;;;;;;;4.00;3.70;;;21.00;75.60;;;;;;5068597;28;45397;-71
2023/10/11 11:28:04;;;;;;;3.27;3.10;;;21.10;75.20;;;;;;5068217;28;44877;-72
2023/10/11 11:30:34;;;;;;;3.47;3.30;;;21.20;75.30;;;;;;5070435;28;43415;-71
2023/10/11 11:33:13;;;;;;;3.30;3.20;;;21.20;75.90;;;;;;5070369;28;43382;-72
2023/10/11 11:35:50;;;;;;;3.77;3.57;;;21.10;76.10;;;;;;5070003;28;44016;-71
2023/10/11 11:38:21;;;;;;;2.90;2.80;;;21.10;76.40;;;;;;5068713;28;43454;-71
2023/10/11 11:40:51;;;;;;;3.63;3.43;;;21.00;75.90;;;;;;5069783;28;43402;-72
2023/10/11 11:43:20;;;;;;;3.20;3.10;;;21.00;76.30;;;;;;5074220;28;43543;-69
2023/10/11 11:45:51;;;;;;;3.20;3.10;;;21.00;76.70;;;;;;5089238;28;43845;-69
2023/10/11 11:48:23;;;;;;;3.50;3.30;;;20.90;76.70;;;;;;5082792;28;43324;-69
2023/10/11 11:50:56;;;;;;;3.10;3.00;;;20.90;76.80;;;;;;5088880;28;44406;-69
2023/10/11 11:53:24;;;;;;;4.63;3.33;;;20.90;76.20;;;;;;5090066;28;43402;-69
2023/10/11 11:55:52;;;;;;;3.40;3.30;;;20.90;75.90;;;;;;5088980;28;45939;-69
2023/10/11 11:58:20;;;;;;;3.40;3.20;;;21.00;75.90;;;;;;5089796;28;43333;-69
2023/10/11 12:01:08;;;;;;;3.83;3.53;;;21.00;76.20;;;;;;5088697;28;43881;-70
2023/10/11 12:03:37;;;;;;;3.20;3.10;;;21.00;76.50;;;;;;5089841;28;43431;-69
2023/10/11 12:06:21;;;;;;;3.27;3.17;;;21.00;76.10;;;;;;5088980;28;43718;-69
2023/10/11 12:08:57;;;;;;;2.97;2.87;;;21.00;76.30;;;;;;5089517;28;43475;-69
2023/10/11 12:11:28;;;;;;;3.90;3.00;;;21.00;76.60;;;;;;5086377;28;43411;-69
2023/10/11 12:13:58;;;;;;;3.33;3.23;;;20.90;77.40;;;;;;5088757;28;43419;-69
2023/10/11 12:16:26;;;;;;;3.33;3.10;;;20.90;76.70;;;;;;5089993;28;43848;-69
2023/10/11 12:18:59;;;;;;;3.30;3.20;;;20.90;76.40;;;;;;5089835;28;43432;-69
2023/10/11 12:21:27;;;;;;;2.90;2.80;;;20.90;76.80;;;;;;5090103;28;43463;-69
2023/10/11 12:23:56;;;;;;;3.33;3.20;;;20.90;76.90;;;;;;5088535;28;43459;-69
2023/10/11 12:26:26;;;;;;;3.40;3.20;;;20.90;77.00;;;;;;5089094;28;45705;-70
2023/10/11 12:28:58;;;;;;;3.23;3.13;;;20.80;76.60;;;;;;5089485;28;43503;-70
2023/10/11 12:31:27;;;;;;;3.00;2.90;;;20.90;76.40;;;;;;5090182;28;43364;-68
2023/10/11 12:33:56;;;;;;;3.30;3.10;;;20.90;75.90;;;;;;5089929;28;43408;-69
2023/10/11 12:36:28;;;;;;;3.30;3.10;;;21.00;75.60;;;;;;5087900;28;46024;-69
2023/10/11 12:38:57;;;;;;;3.63;3.37;;;21.20;75.30;;;;;;5087204;28;43389;-69
2023/10/11 12:41:25;;;;;;;3.10;3.00;;;21.20;76.30;;;;;;5089245;28;43313;-70
2023/10/11 12:43:53;;;;;;;3.03;2.83;;;21.20;75.90;;;;;;5088802;28;43498;-69
2023/10/11 12:46:21;;;;;;;3.17;3.07;;;21.10;76.10;;;;;;5086844;28;43969;-69
2023/10/11 12:48:54;;;;;;;3.30;3.20;;;21.00;76.20;;;;;;5086473;28;43386;-69
2023/10/11 12:51:25;;;;;;;3.23;3.10;;;21.00;75.90;;;;;;5089200;28;43368;-69
2023/10/11 12:53:55;;;;;;;2.87;2.77;;;21.00;76.40;;;;;;5081185;28;43483;-67
2023/10/11 12:56:24;;;;;;;2.77;2.67;;;21.00;77.40;;;;;;5073200;28;43868;-66
2023/10/11 12:58:53;;;;;;;2.80;2.70;;;20.90;76.70;;;;;;5073305;28;43593;-65
2023/10/11 13:01:36;;;;;;;3.00;2.90;;;20.90;76.50;;;;;;5072208;28;43370;-65
2023/10/11 13:04:08;;;;;;;3.23;3.03;;;20.90;76.60;;;;;;5067841;28;43391;-65
2023/10/11 13:06:43;;;;;;;2.70;2.60;;;20.90;76.70;;;;;;5072866;28;43605;-65
2023/10/11 13:09:14;;;;;;;3.07;2.97;;;20.90;76.90;;;;;;5072900;28;43375;-66
2023/10/11 13:11:44;;;;;;;3.13;3.03;;;20.90;76.90;;;;;;5072747;28;43935;-66
2023/10/11 13:14:18;;;;;;;2.90;2.80;;;20.90;76.50;;;;;;5071617;28;43461;-69
2023/10/11 13:16:49;;;;;;;2.90;2.80;;;20.90;76.20;;;;;;5064982;28;43622;-70
2023/10/11 13:19:19;;;;;;;3.10;3.00;;;21.00;75.80;;;;;;5068161;28;43399;-69
2023/10/11 13:21:48;;;;;;;3.30;3.20;;;21.20;75.40;;;;;;5067424;28;43686;-69
2023/10/11 13:24:21;;;;;;;3.03;2.83;;;21.20;75.20;;;;;;5068700;28;44059;-69
2023/10/11 13:26:51;;;;;;;3.27;3.13;;;21.20;75.60;;;;;;5066377;28;45761;-69
2023/10/11 13:29:19;;;;;;;2.50;2.40;;;21.20;75.90;;;;;;5068099;28;44001;-69
2023/10/11 13:31:48;;;;;;;2.90;2.80;;;21.10;76.70;;;;;;5066661;28;43317;-71
2023/10/11 13:34:16;;;;;;;2.90;2.80;;;21.10;75.90;;;;;;5068341;28;43532;-71